sensor_id;sensor_type;location;lat;lon;timestamp;P1;durP1;ratioP1;P2;durP2;ratioP2
17844;SDS011;9047;53.486;10.218;2022-10-23T00:00:09;34.15;;;17.92;;
17844;SDS011;9047;53.486;10.218;2022-10-23T00:02:38;28.73;;;17.73;;
17844;SDS011;9047;53.486;10.218;2022-10-23T00:05:05;36.72;;;18.83;;
17844;SDS011;9047;53.486;10.218;2022-10-23T00:07:32;37.38;;;18.73;;
17844;SDS011;9047;53.486;10.218;2022-10-23T00:09:59;34.22;;;18.77;;
17844;SDS011;9047;53.486;10.218;2022-10-23T00:12:26;29.40;;;17.75;;
17844;SDS011;9047;53.486;10.218;2022-10-23T00:14:53;33.20;;;18.20;;
17844;SDS011;9047;53.486;10.218;2022-10-23T00:17:20;32.40;;;18.55;;
17844;SDS011;9047;53.486;10.218;2022-10-23T00:19:48;28.55;;;17.73;;
17844;SDS011;9047;53.486;10.218;2022-10-23T00:22:15;31.70;;;18.50;;
17844;SDS011;9047;53.486;10.218;2022-10-23T00:24:41;30.48;;;17.52;;
17844;SDS011;9047;53.486;10.218;2022-10-23T00:27:08;34.88;;;18.10;;
17844;SDS011;9047;53.486;10.218;2022-10-23T00:29:35;32.15;;;18.30;;
17844;SDS011;9047;53.486;10.218;2022-10-23T00:32:01;33.72;;;18.80;;
17844;SDS011;9047;53.486;10.218;2022-10-23T00:34:28;33.50;;;18.85;;
17844;SDS011;9047;53.486;10.218;2022-10-23T00:36:56;30.67;;;19.13;;
17844;SDS011;9047;53.486;10.218;2022-10-23T00:39:23;31.40;;;18.50;;
17844;SDS011;9047;53.486;10.218;2022-10-23T00:41:50;34.20;;;19.02;;
17844;SDS011;9047;53.486;10.218;2022-10-23T00:47:23;35.35;;;18.58;;
17844;SDS011;9047;53.486;10.218;2022-10-23T00:49:49;31.02;;;18.08;;
17844;SDS011;9047;53.486;10.218;2022-10-23T00:52:18;31.20;;;18.55;;
17844;SDS011;9047;53.486;10.218;2022-10-23T00:54:44;35.85;;;19.10;;
17844;SDS011;9047;53.486;10.218;2022-10-23T00:57:12;29.15;;;18.00;;
17844;SDS011;9047;53.486;10.218;2022-10-23T00:59:40;31.20;;;18.08;;
17844;SDS011;9047;53.486;10.218;2022-10-23T01:02:07;32.53;;;18.60;;
17844;SDS011;9047;53.486;10.218;2022-10-23T01:11:21;31.52;;;18.17;;
17844;SDS011;9047;53.486;10.218;2022-10-23T01:13:54;32.50;;;18.50;;
17844;SDS011;9047;53.486;10.218;2022-10-23T01:16:29;30.77;;;17.70;;
17844;SDS011;9047;53.486;10.218;2022-10-23T01:19:03;34.60;;;19.13;;
17844;SDS011;9047;53.486;10.218;2022-10-23T01:21:38;37.08;;;18.80;;
17844;SDS011;9047;53.486;10.218;2022-10-23T01:24:14;34.13;;;18.75;;
17844;SDS011;9047;53.486;10.218;2022-10-23T01:26:56;36.13;;;19.05;;
17844;SDS011;9047;53.486;10.218;2022-10-23T01:29:30;32.65;;;17.27;;
17844;SDS011;9047;53.486;10.218;2022-10-23T01:32:02;35.35;;;18.45;;
17844;SDS011;9047;53.486;10.218;2022-10-23T01:34:35;33.83;;;18.67;;
17844;SDS011;9047;53.486;10.218;2022-10-23T01:37:10;33.88;;;17.33;;
17844;SDS011;9047;53.486;10.218;2022-10-23T01:39:40;31.05;;;18.45;;
17844;SDS011;9047;53.486;10.218;2022-10-23T01:42:12;37.85;;;19.73;;
17844;SDS011;9047;53.486;10.218;2022-10-23T01:44:43;33.20;;;18.75;;
17844;SDS011;9047;53.486;10.218;2022-10-23T01:47:13;32.72;;;18.20;;
17844;SDS011;9047;53.486;10.218;2022-10-23T01:49:43;39.15;;;19.33;;
17844;SDS011;9047;53.486;10.218;2022-10-23T01:52:12;35.72;;;19.15;;
17844;SDS011;9047;53.486;10.218;2022-10-23T01:54:41;33.83;;;19.48;;
17844;SDS011;9047;53.486;10.218;2022-10-23T01:57:11;37.90;;;20.38;;
17844;SDS011;9047;53.486;10.218;2022-10-23T01:59:41;34.85;;;18.73;;
17844;SDS011;9047;53.486;10.218;2022-10-23T02:02:12;39.67;;;20.15;;
17844;SDS011;9047;53.486;10.218;2022-10-23T02:04:44;36.90;;;18.40;;
17844;SDS011;9047;53.486;10.218;2022-10-23T02:07:14;51.15;;;21.42;;
17844;SDS011;9047;53.486;10.218;2022-10-23T02:09:41;43.15;;;21.00;;
17844;SDS011;9047;53.486;10.218;2022-10-23T02:12:08;37.22;;;19.42;;
17844;SDS011;9047;53.486;10.218;2022-10-23T02:14:41;39.78;;;19.77;;
17844;SDS011;9047;53.486;10.218;2022-10-23T02:17:13;40.80;;;19.23;;
17844;SDS011;9047;53.486;10.218;2022-10-23T02:19:46;38.13;;;19.73;;
17844;SDS011;9047;53.486;10.218;2022-10-23T02:22:20;32.47;;;18.20;;
17844;SDS011;9047;53.486;10.218;2022-10-23T02:24:51;30.67;;;16.85;;
17844;SDS011;9047;53.486;10.218;2022-10-23T02:27:23;34.75;;;17.92;;
17844;SDS011;9047;53.486;10.218;2022-10-23T02:29:54;35.53;;;17.77;;
17844;SDS011;9047;53.486;10.218;2022-10-23T02:32:25;33.20;;;17.30;;
17844;SDS011;9047;53.486;10.218;2022-10-23T02:34:53;31.98;;;17.55;;
17844;SDS011;9047;53.486;10.218;2022-10-23T02:37:21;33.53;;;17.40;;
17844;SDS011;9047;53.486;10.218;2022-10-23T02:39:49;31.55;;;16.92;;
17844;SDS011;9047;53.486;10.218;2022-10-23T02:42:18;31.27;;;17.38;;
17844;SDS011;9047;53.486;10.218;2022-10-23T02:44:52;33.88;;;17.13;;
17844;SDS011;9047;53.486;10.218;2022-10-23T02:47:33;31.60;;;17.42;;
17844;SDS011;9047;53.486;10.218;2022-10-23T02:50:12;39.25;;;17.52;;
17844;SDS011;9047;53.486;10.218;2022-10-23T02:52:45;35.67;;;16.17;;
17844;SDS011;9047;53.486;10.218;2022-10-23T02:55:21;32.70;;;16.17;;
17844;SDS011;9047;53.486;10.218;2022-10-23T02:57:56;52.90;;;18.15;;
17844;SDS011;9047;53.486;10.218;2022-10-23T03:00:30;35.33;;;16.77;;
17844;SDS011;9047;53.486;10.218;2022-10-23T03:02:59;111.00;;;21.58;;
17844;SDS011;9047;53.486;10.218;2022-10-23T03:05:30;31.00;;;16.73;;
17844;SDS011;9047;53.486;10.218;2022-10-23T03:07:58;59.05;;;19.50;;
17844;SDS011;9047;53.486;10.218;2022-10-23T03:10:25;61.58;;;19.35;;
17844;SDS011;9047;53.486;10.218;2022-10-23T03:12:51;36.97;;;17.27;;
17844;SDS011;9047;53.486;10.218;2022-10-23T03:15:18;48.85;;;18.95;;
17844;SDS011;9047;53.486;10.218;2022-10-23T03:17:46;45.72;;;19.98;;
17844;SDS011;9047;53.486;10.218;2022-10-23T03:20:14;51.55;;;20.17;;
17844;SDS011;9047;53.486;10.218;2022-10-23T03:22:41;56.13;;;20.70;;
17844;SDS011;9047;53.486;10.218;2022-10-23T03:25:08;44.90;;;19.42;;
17844;SDS011;9047;53.486;10.218;2022-10-23T03:27:35;42.92;;;18.50;;
17844;SDS011;9047;53.486;10.218;2022-10-23T03:30:02;45.67;;;18.73;;
17844;SDS011;9047;53.486;10.218;2022-10-23T03:32:30;47.33;;;18.85;;
17844;SDS011;9047;53.486;10.218;2022-10-23T03:34:58;49.88;;;19.05;;
17844;SDS011;9047;53.486;10.218;2022-10-23T03:37:25;52.83;;;20.70;;
17844;SDS011;9047;53.486;10.218;2022-10-23T03:39:52;41.80;;;18.38;;
17844;SDS011;9047;53.486;10.218;2022-10-23T03:42:18;43.75;;;19.20;;
17844;SDS011;9047;53.486;10.218;2022-10-23T03:44:45;38.05;;;18.52;;
17844;SDS011;9047;53.486;10.218;2022-10-23T03:47:13;42.92;;;18.60;;
17844;SDS011;9047;53.486;10.218;2022-10-23T03:49:40;44.50;;;19.20;;
17844;SDS011;9047;53.486;10.218;2022-10-23T03:52:08;48.65;;;18.48;;
17844;SDS011;9047;53.486;10.218;2022-10-23T03:54:34;48.53;;;18.98;;
17844;SDS011;9047;53.486;10.218;2022-10-23T03:57:01;39.53;;;17.55;;
17844;SDS011;9047;53.486;10.218;2022-10-23T03:59:28;43.35;;;17.75;;
17844;SDS011;9047;53.486;10.218;2022-10-23T04:01:55;47.50;;;17.83;;
17844;SDS011;9047;53.486;10.218;2022-10-23T04:04:22;42.40;;;18.08;;
17844;SDS011;9047;53.486;10.218;2022-10-23T04:06:49;40.42;;;17.33;;
17844;SDS011;9047;53.486;10.218;2022-10-23T04:09:17;51.65;;;18.63;;
17844;SDS011;9047;53.486;10.218;2022-10-23T04:11:43;49.22;;;18.70;;
17844;SDS011;9047;53.486;10.218;2022-10-23T04:14:11;41.78;;;17.48;;
17844;SDS011;9047;53.486;10.218;2022-10-23T04:16:38;42.25;;;16.85;;
17844;SDS011;9047;53.486;10.218;2022-10-23T04:19:05;50.22;;;18.17;;
17844;SDS011;9047;53.486;10.218;2022-10-23T04:21:31;45.40;;;17.50;;
17844;SDS011;9047;53.486;10.218;2022-10-23T04:23:58;45.63;;;17.33;;
17844;SDS011;9047;53.486;10.218;2022-10-23T04:26:26;42.10;;;16.52;;
17844;SDS011;9047;53.486;10.218;2022-10-23T04:28:53;46.90;;;17.05;;
17844;SDS011;9047;53.486;10.218;2022-10-23T04:31:20;41.13;;;16.33;;
17844;SDS011;9047;53.486;10.218;2022-10-23T04:33:46;42.25;;;17.10;;
17844;SDS011;9047;53.486;10.218;2022-10-23T04:36:13;49.60;;;16.75;;
17844;SDS011;9047;53.486;10.218;2022-10-23T04:38:40;39.33;;;16.30;;
17844;SDS011;9047;53.486;10.218;2022-10-23T04:41:07;48.97;;;17.15;;
17844;SDS011;9047;53.486;10.218;2022-10-23T04:43:35;38.17;;;16.73;;
17844;SDS011;9047;53.486;10.218;2022-10-23T04:46:02;42.45;;;16.30;;
17844;SDS011;9047;53.486;10.218;2022-10-23T04:48:29;40.92;;;16.75;;
17844;SDS011;9047;53.486;10.218;2022-10-23T04:50:56;42.45;;;16.88;;
17844;SDS011;9047;53.486;10.218;2022-10-23T04:53:23;34.72;;;16.60;;
17844;SDS011;9047;53.486;10.218;2022-10-23T04:55:51;38.35;;;17.15;;
17844;SDS011;9047;53.486;10.218;2022-10-23T04:58:19;39.78;;;16.67;;
17844;SDS011;9047;53.486;10.218;2022-10-23T05:00:48;42.53;;;17.60;;
17844;SDS011;9047;53.486;10.218;2022-10-23T05:03:16;36.83;;;17.08;;
17844;SDS011;9047;53.486;10.218;2022-10-23T05:05:44;39.63;;;17.35;;
17844;SDS011;9047;53.486;10.218;2022-10-23T05:08:11;46.25;;;17.70;;
17844;SDS011;9047;53.486;10.218;2022-10-23T05:10:38;42.10;;;17.80;;
17844;SDS011;9047;53.486;10.218;2022-10-23T05:13:05;44.80;;;17.90;;
17844;SDS011;9047;53.486;10.218;2022-10-23T05:15:32;46.90;;;18.30;;
17844;SDS011;9047;53.486;10.218;2022-10-23T05:18:02;45.92;;;16.98;;
17844;SDS011;9047;53.486;10.218;2022-10-23T05:20:33;48.25;;;17.85;;
17844;SDS011;9047;53.486;10.218;2022-10-23T05:23:01;38.63;;;16.70;;
17844;SDS011;9047;53.486;10.218;2022-10-23T05:25:31;40.35;;;17.00;;
17844;SDS011;9047;53.486;10.218;2022-10-23T05:27:58;43.80;;;17.77;;
17844;SDS011;9047;53.486;10.218;2022-10-23T05:30:25;42.85;;;18.90;;
17844;SDS011;9047;53.486;10.218;2022-10-23T05:32:52;44.33;;;18.63;;
17844;SDS011;9047;53.486;10.218;2022-10-23T05:35:21;42.95;;;18.00;;
17844;SDS011;9047;53.486;10.218;2022-10-23T05:37:49;46.42;;;18.02;;
17844;SDS011;9047;53.486;10.218;2022-10-23T05:40:17;38.08;;;16.10;;
17844;SDS011;9047;53.486;10.218;2022-10-23T05:42:44;37.35;;;17.02;;
17844;SDS011;9047;53.486;10.218;2022-10-23T05:45:11;43.08;;;17.20;;
17844;SDS011;9047;53.486;10.218;2022-10-23T05:47:38;38.80;;;15.88;;
17844;SDS011;9047;53.486;10.218;2022-10-23T05:50:05;33.55;;;16.48;;
17844;SDS011;9047;53.486;10.218;2022-10-23T05:52:33;38.13;;;16.05;;
17844;SDS011;9047;53.486;10.218;2022-10-23T05:55:00;40.67;;;15.70;;
17844;SDS011;9047;53.486;10.218;2022-10-23T05:57:30;42.75;;;16.80;;
17844;SDS011;9047;53.486;10.218;2022-10-23T05:59:57;32.65;;;16.02;;
17844;SDS011;9047;53.486;10.218;2022-10-23T06:02:25;35.70;;;15.50;;
17844;SDS011;9047;53.486;10.218;2022-10-23T06:04:52;37.53;;;16.13;;
17844;SDS011;9047;53.486;10.218;2022-10-23T06:07:21;38.03;;;15.77;;
17844;SDS011;9047;53.486;10.218;2022-10-23T06:09:50;39.17;;;16.48;;
17844;SDS011;9047;53.486;10.218;2022-10-23T06:12:18;43.45;;;16.88;;
17844;SDS011;9047;53.486;10.218;2022-10-23T06:14:45;31.70;;;15.27;;
17844;SDS011;9047;53.486;10.218;2022-10-23T06:17:11;33.47;;;15.77;;
17844;SDS011;9047;53.486;10.218;2022-10-23T06:19:38;31.88;;;14.75;;
17844;SDS011;9047;53.486;10.218;2022-10-23T06:22:05;32.55;;;14.65;;
17844;SDS011;9047;53.486;10.218;2022-10-23T06:24:33;42.38;;;16.33;;
17844;SDS011;9047;53.486;10.218;2022-10-23T06:27:01;43.20;;;17.13;;
17844;SDS011;9047;53.486;10.218;2022-10-23T06:29:29;37.15;;;15.45;;
17844;SDS011;9047;53.486;10.218;2022-10-23T06:31:56;37.90;;;16.48;;
17844;SDS011;9047;53.486;10.218;2022-10-23T06:34:25;40.15;;;15.85;;
17844;SDS011;9047;53.486;10.218;2022-10-23T06:36:51;33.45;;;16.10;;
17844;SDS011;9047;53.486;10.218;2022-10-23T06:39:18;34.72;;;16.40;;
17844;SDS011;9047;53.486;10.218;2022-10-23T06:41:46;33.08;;;14.93;;
17844;SDS011;9047;53.486;10.218;2022-10-23T06:44:14;39.53;;;16.35;;
17844;SDS011;9047;53.486;10.218;2022-10-23T06:46:41;44.97;;;16.10;;
17844;SDS011;9047;53.486;10.218;2022-10-23T06:49:11;42.40;;;17.48;;
17844;SDS011;9047;53.486;10.218;2022-10-23T06:51:40;36.53;;;15.98;;
17844;SDS011;9047;53.486;10.218;2022-10-23T06:54:09;35.63;;;15.18;;
17844;SDS011;9047;53.486;10.218;2022-10-23T06:56:36;37.80;;;16.38;;
17844;SDS011;9047;53.486;10.218;2022-10-23T06:59:03;37.00;;;15.55;;
17844;SDS011;9047;53.486;10.218;2022-10-23T07:01:34;39.33;;;15.27;;
17844;SDS011;9047;53.486;10.218;2022-10-23T07:04:00;38.97;;;15.48;;
17844;SDS011;9047;53.486;10.218;2022-10-23T07:06:27;42.97;;;15.70;;
17844;SDS011;9047;53.486;10.218;2022-10-23T07:08:54;36.25;;;15.40;;
17844;SDS011;9047;53.486;10.218;2022-10-23T07:11:21;36.47;;;14.57;;
17844;SDS011;9047;53.486;10.218;2022-10-23T07:13:48;34.03;;;15.27;;
17844;SDS011;9047;53.486;10.218;2022-10-23T07:16:15;34.60;;;15.40;;
17844;SDS011;9047;53.486;10.218;2022-10-23T07:19:00;36.35;;;15.25;;
17844;SDS011;9047;53.486;10.218;2022-10-23T07:21:27;38.40;;;15.13;;
17844;SDS011;9047;53.486;10.218;2022-10-23T07:23:55;37.40;;;14.52;;
17844;SDS011;9047;53.486;10.218;2022-10-23T07:26:22;37.55;;;14.82;;
17844;SDS011;9047;53.486;10.218;2022-10-23T07:28:50;41.22;;;16.17;;
17844;SDS011;9047;53.486;10.218;2022-10-23T07:31:19;44.08;;;16.50;;
17844;SDS011;9047;53.486;10.218;2022-10-23T07:33:46;34.03;;;15.25;;
17844;SDS011;9047;53.486;10.218;2022-10-23T07:36:14;33.28;;;14.43;;
17844;SDS011;9047;53.486;10.218;2022-10-23T07:38:41;43.97;;;15.90;;
17844;SDS011;9047;53.486;10.218;2022-10-23T07:41:08;36.28;;;15.40;;
17844;SDS011;9047;53.486;10.218;2022-10-23T07:43:35;40.35;;;16.38;;
17844;SDS011;9047;53.486;10.218;2022-10-23T07:46:02;44.15;;;16.85;;
17844;SDS011;9047;53.486;10.218;2022-10-23T07:48:29;33.25;;;15.43;;
17844;SDS011;9047;53.486;10.218;2022-10-23T07:50:57;38.13;;;15.57;;
17844;SDS011;9047;53.486;10.218;2022-10-23T07:53:27;42.10;;;16.55;;
17844;SDS011;9047;53.486;10.218;2022-10-23T07:55:54;39.05;;;15.50;;
17844;SDS011;9047;53.486;10.218;2022-10-23T07:58:22;35.15;;;14.60;;
17844;SDS011;9047;53.486;10.218;2022-10-23T08:00:53;40.58;;;15.60;;
17844;SDS011;9047;53.486;10.218;2022-10-23T08:03:22;32.53;;;14.68;;
17844;SDS011;9047;53.486;10.218;2022-10-23T08:05:50;32.15;;;15.07;;
17844;SDS011;9047;53.486;10.218;2022-10-23T08:08:18;38.78;;;15.73;;
17844;SDS011;9047;53.486;10.218;2022-10-23T08:10:46;34.25;;;15.15;;
17844;SDS011;9047;53.486;10.218;2022-10-23T08:13:13;32.17;;;15.20;;
17844;SDS011;9047;53.486;10.218;2022-10-23T08:15:40;37.00;;;15.80;;
17844;SDS011;9047;53.486;10.218;2022-10-23T08:18:09;33.30;;;14.98;;
17844;SDS011;9047;53.486;10.218;2022-10-23T08:20:39;40.15;;;14.57;;
17844;SDS011;9047;53.486;10.218;2022-10-23T08:23:06;32.75;;;14.65;;
17844;SDS011;9047;53.486;10.218;2022-10-23T08:25:34;24.67;;;13.38;;
17844;SDS011;9047;53.486;10.218;2022-10-23T08:28:02;32.83;;;14.10;;
17844;SDS011;9047;53.486;10.218;2022-10-23T08:30:29;29.10;;;13.90;;
17844;SDS011;9047;53.486;10.218;2022-10-23T08:32:56;33.72;;;13.88;;
17844;SDS011;9047;53.486;10.218;2022-10-23T08:35:23;30.88;;;12.98;;
17844;SDS011;9047;53.486;10.218;2022-10-23T08:37:51;19.58;;;11.40;;
17844;SDS011;9047;53.486;10.218;2022-10-23T08:40:18;20.35;;;11.70;;
17844;SDS011;9047;53.486;10.218;2022-10-23T08:42:50;22.92;;;11.18;;
17844;SDS011;9047;53.486;10.218;2022-10-23T08:45:29;24.30;;;11.93;;
17844;SDS011;9047;53.486;10.218;2022-10-23T08:47:59;20.95;;;10.73;;
17844;SDS011;9047;53.486;10.218;2022-10-23T08:50:34;18.75;;;9.85;;
17844;SDS011;9047;53.486;10.218;2022-10-23T08:53:04;24.80;;;11.50;;
17844;SDS011;9047;53.486;10.218;2022-10-23T08:55:39;23.08;;;10.95;;
17844;SDS011;9047;53.486;10.218;2022-10-23T08:58:11;19.88;;;10.27;;
17844;SDS011;9047;53.486;10.218;2022-10-23T09:00:45;18.75;;;9.95;;
17844;SDS011;9047;53.486;10.218;2022-10-23T09:03:12;18.45;;;10.10;;
17844;SDS011;9047;53.486;10.218;2022-10-23T09:05:42;19.27;;;9.32;;
17844;SDS011;9047;53.486;10.218;2022-10-23T09:08:23;16.85;;;9.68;;
17844;SDS011;9047;53.486;10.218;2022-10-23T09:11:03;19.33;;;8.88;;
17844;SDS011;9047;53.486;10.218;2022-10-23T09:13:39;15.82;;;9.18;;
17844;SDS011;9047;53.486;10.218;2022-10-23T09:16:21;16.38;;;8.55;;
17844;SDS011;9047;53.486;10.218;2022-10-23T09:19:02;13.50;;;7.97;;
17844;SDS011;9047;53.486;10.218;2022-10-23T09:21:36;19.17;;;8.85;;
17844;SDS011;9047;53.486;10.218;2022-10-23T09:24:04;13.65;;;7.75;;
17844;SDS011;9047;53.486;10.218;2022-10-23T09:26:31;13.90;;;8.10;;
17844;SDS011;9047;53.486;10.218;2022-10-23T09:29:01;17.83;;;8.23;;
17844;SDS011;9047;53.486;10.218;2022-10-23T09:31:48;12.30;;;7.00;;
17844;SDS011;9047;53.486;10.218;2022-10-23T09:34:17;15.00;;;7.32;;
17844;SDS011;9047;53.486;10.218;2022-10-23T09:36:48;13.27;;;7.25;;
17844;SDS011;9047;53.486;10.218;2022-10-23T09:39:21;14.35;;;7.30;;
17844;SDS011;9047;53.486;10.218;2022-10-23T09:41:49;14.57;;;7.85;;
17844;SDS011;9047;53.486;10.218;2022-10-23T09:44:17;18.63;;;7.40;;
17844;SDS011;9047;53.486;10.218;2022-10-23T09:46:52;11.02;;;6.78;;
17844;SDS011;9047;53.486;10.218;2022-10-23T09:49:20;12.35;;;7.15;;
17844;SDS011;9047;53.486;10.218;2022-10-23T09:51:53;14.40;;;7.13;;
17844;SDS011;9047;53.486;10.218;2022-10-23T09:54:27;12.70;;;6.60;;
17844;SDS011;9047;53.486;10.218;2022-10-23T09:56:55;12.20;;;6.75;;
17844;SDS011;9047;53.486;10.218;2022-10-23T09:59:27;13.48;;;7.05;;
17844;SDS011;9047;53.486;10.218;2022-10-23T10:01:58;9.32;;;6.85;;
17844;SDS011;9047;53.486;10.218;2022-10-23T10:04:31;13.45;;;6.32;;
17844;SDS011;9047;53.486;10.218;2022-10-23T10:07:00;13.18;;;7.30;;
17844;SDS011;9047;53.486;10.218;2022-10-23T10:09:30;13.13;;;6.57;;
17844;SDS011;9047;53.486;10.218;2022-10-23T10:11:59;12.32;;;6.03;;
17844;SDS011;9047;53.486;10.218;2022-10-23T10:14:43;10.05;;;6.40;;
17844;SDS011;9047;53.486;10.218;2022-10-23T10:17:22;11.00;;;5.70;;
17844;SDS011;9047;53.486;10.218;2022-10-23T10:20:14;8.63;;;5.07;;
17844;SDS011;9047;53.486;10.218;2022-10-23T10:22:51;7.82;;;5.28;;
17844;SDS011;9047;53.486;10.218;2022-10-23T10:25:22;9.73;;;5.40;;
17844;SDS011;9047;53.486;10.218;2022-10-23T10:27:59;12.52;;;5.43;;
17844;SDS011;9047;53.486;10.218;2022-10-23T10:30:43;10.48;;;5.00;;
17844;SDS011;9047;53.486;10.218;2022-10-23T10:33:21;9.05;;;5.10;;
17844;SDS011;9047;53.486;10.218;2022-10-23T10:35:55;11.23;;;5.30;;
17844;SDS011;9047;53.486;10.218;2022-10-23T10:38:40;9.45;;;4.85;;
17844;SDS011;9047;53.486;10.218;2022-10-23T10:41:19;8.30;;;4.95;;
17844;SDS011;9047;53.486;10.218;2022-10-23T10:43:58;8.57;;;4.70;;
17844;SDS011;9047;53.486;10.218;2022-10-23T10:46:46;10.65;;;4.97;;
17844;SDS011;9047;53.486;10.218;2022-10-23T10:49:22;8.57;;;5.03;;
17844;SDS011;9047;53.486;10.218;2022-10-23T10:51:56;12.70;;;4.88;;
17844;SDS011;9047;53.486;10.218;2022-10-23T10:54:38;15.23;;;5.80;;
17844;SDS011;9047;53.486;10.218;2022-10-23T10:57:18;9.90;;;5.18;;
17844;SDS011;9047;53.486;10.218;2022-10-23T10:59:54;7.30;;;4.03;;
17844;SDS011;9047;53.486;10.218;2022-10-23T11:02:25;10.60;;;4.10;;
17844;SDS011;9047;53.486;10.218;2022-10-23T11:04:59;10.55;;;3.78;;
17844;SDS011;9047;53.486;10.218;2022-10-23T11:07:36;11.35;;;4.78;;
17844;SDS011;9047;53.486;10.218;2022-10-23T11:10:12;8.57;;;4.55;;
17844;SDS011;9047;53.486;10.218;2022-10-23T11:12:41;8.15;;;3.50;;
17844;SDS011;9047;53.486;10.218;2022-10-23T11:15:11;10.88;;;3.70;;
17844;SDS011;9047;53.486;10.218;2022-10-23T11:17:42;9.85;;;3.83;;
17844;SDS011;9047;53.486;10.218;2022-10-23T11:20:21;8.80;;;3.45;;
17844;SDS011;9047;53.486;10.218;2022-10-23T11:22:58;7.07;;;3.88;;
17844;SDS011;9047;53.486;10.218;2022-10-23T11:25:49;7.95;;;3.17;;
17844;SDS011;9047;53.486;10.218;2022-10-23T11:28:29;8.02;;;3.90;;
17844;SDS011;9047;53.486;10.218;2022-10-23T11:31:06;9.95;;;3.55;;
17844;SDS011;9047;53.486;10.218;2022-10-23T11:36:48;7.32;;;2.95;;
17844;SDS011;9047;53.486;10.218;2022-10-23T11:39:18;5.78;;;2.92;;
17844;SDS011;9047;53.486;10.218;2022-10-23T11:41:52;5.63;;;2.67;;
17844;SDS011;9047;53.486;10.218;2022-10-23T11:44:27;10.70;;;3.10;;
17844;SDS011;9047;53.486;10.218;2022-10-23T11:47:06;9.05;;;2.80;;
17844;SDS011;9047;53.486;10.218;2022-10-23T11:50:12;7.80;;;4.15;;
17844;SDS011;9047;53.486;10.218;2022-10-23T11:52:59;6.32;;;3.78;;
17844;SDS011;9047;53.486;10.218;2022-10-23T11:55:29;7.07;;;3.88;;
17844;SDS011;9047;53.486;10.218;2022-10-23T11:58:09;11.07;;;5.80;;
17844;SDS011;9047;53.486;10.218;2022-10-23T12:00:48;13.10;;;6.43;;
17844;SDS011;9047;53.486;10.218;2022-10-23T12:03:21;6.45;;;3.40;;
17844;SDS011;9047;53.486;10.218;2022-10-23T12:05:55;7.38;;;3.30;;
17844;SDS011;9047;53.486;10.218;2022-10-23T12:08:28;6.43;;;3.22;;
17844;SDS011;9047;53.486;10.218;2022-10-23T12:10:57;6.82;;;2.90;;
17844;SDS011;9047;53.486;10.218;2022-10-23T12:13:28;5.68;;;3.00;;
17844;SDS011;9047;53.486;10.218;2022-10-23T12:16:10;6.05;;;2.88;;
17844;SDS011;9047;53.486;10.218;2022-10-23T12:18:44;6.35;;;2.92;;
17844;SDS011;9047;53.486;10.218;2022-10-23T12:21:14;6.82;;;3.05;;
17844;SDS011;9047;53.486;10.218;2022-10-23T12:23:48;7.75;;;3.25;;
17844;SDS011;9047;53.486;10.218;2022-10-23T12:26:34;7.28;;;2.90;;
17844;SDS011;9047;53.486;10.218;2022-10-23T12:29:17;7.15;;;3.10;;
17844;SDS011;9047;53.486;10.218;2022-10-23T12:31:55;6.05;;;2.67;;
17844;SDS011;9047;53.486;10.218;2022-10-23T12:34:30;4.57;;;2.58;;
17844;SDS011;9047;53.486;10.218;2022-10-23T12:37:20;4.70;;;2.60;;
17844;SDS011;9047;53.486;10.218;2022-10-23T12:40:10;10.20;;;2.95;;
17844;SDS011;9047;53.486;10.218;2022-10-23T12:42:37;9.10;;;2.80;;
17844;SDS011;9047;53.486;10.218;2022-10-23T12:45:07;5.05;;;2.45;;
17844;SDS011;9047;53.486;10.218;2022-10-23T12:47:41;8.02;;;2.60;;
17844;SDS011;9047;53.486;10.218;2022-10-23T12:50:19;9.70;;;2.95;;
17844;SDS011;9047;53.486;10.218;2022-10-23T12:52:53;7.10;;;2.60;;
17844;SDS011;9047;53.486;10.218;2022-10-23T12:55:24;7.15;;;2.70;;
17844;SDS011;9047;53.486;10.218;2022-10-23T12:57:56;4.25;;;2.40;;
17844;SDS011;9047;53.486;10.218;2022-10-23T13:00:23;6.95;;;2.45;;
17844;SDS011;9047;53.486;10.218;2022-10-23T13:02:57;7.32;;;2.70;;
17844;SDS011;9047;53.486;10.218;2022-10-23T13:05:25;5.97;;;2.30;;
17844;SDS011;9047;53.486;10.218;2022-10-23T13:07:53;6.97;;;2.33;;
17844;SDS011;9047;53.486;10.218;2022-10-23T13:10:20;8.30;;;2.67;;
17844;SDS011;9047;53.486;10.218;2022-10-23T13:12:51;8.27;;;2.63;;
17844;SDS011;9047;53.486;10.218;2022-10-23T13:15:21;5.35;;;2.15;;
17844;SDS011;9047;53.486;10.218;2022-10-23T13:20:35;5.80;;;2.40;;
17844;SDS011;9047;53.486;10.218;2022-10-23T13:23:10;6.80;;;2.10;;
17844;SDS011;9047;53.486;10.218;2022-10-23T13:25:51;7.95;;;2.50;;
17844;SDS011;9047;53.486;10.218;2022-10-23T13:28:26;3.55;;;2.00;;
17844;SDS011;9047;53.486;10.218;2022-10-23T13:34:04;7.07;;;2.40;;
17844;SDS011;9047;53.486;10.218;2022-10-23T13:36:47;4.63;;;2.17;;
17844;SDS011;9047;53.486;10.218;2022-10-23T13:39:16;6.30;;;2.47;;
17844;SDS011;9047;53.486;10.218;2022-10-23T13:41:48;7.47;;;2.28;;
17844;SDS011;9047;53.486;10.218;2022-10-23T13:44:20;9.77;;;2.17;;
17844;SDS011;9047;53.486;10.218;2022-10-23T13:46:47;8.02;;;2.00;;
17844;SDS011;9047;53.486;10.218;2022-10-23T13:49:16;4.40;;;2.05;;
17844;SDS011;9047;53.486;10.218;2022-10-23T13:51:44;6.55;;;2.30;;
17844;SDS011;9047;53.486;10.218;2022-10-23T13:54:14;6.10;;;2.25;;
17844;SDS011;9047;53.486;10.218;2022-10-23T13:56:43;8.30;;;2.35;;
17844;SDS011;9047;53.486;10.218;2022-10-23T13:59:10;8.50;;;2.58;;
17844;SDS011;9047;53.486;10.218;2022-10-23T14:01:39;6.65;;;2.22;;
17844;SDS011;9047;53.486;10.218;2022-10-23T14:04:06;6.00;;;2.13;;
17844;SDS011;9047;53.486;10.218;2022-10-23T14:06:34;3.72;;;2.00;;
17844;SDS011;9047;53.486;10.218;2022-10-23T14:09:02;4.20;;;2.20;;
17844;SDS011;9047;53.486;10.218;2022-10-23T14:11:30;5.80;;;2.20;;
17844;SDS011;9047;53.486;10.218;2022-10-23T14:14:00;5.32;;;1.85;;
17844;SDS011;9047;53.486;10.218;2022-10-23T14:16:27;5.18;;;2.20;;
17844;SDS011;9047;53.486;10.218;2022-10-23T14:18:56;5.90;;;2.25;;
17844;SDS011;9047;53.486;10.218;2022-10-23T14:21:24;4.78;;;2.20;;
17844;SDS011;9047;53.486;10.218;2022-10-23T14:23:51;4.55;;;2.22;;
17844;SDS011;9047;53.486;10.218;2022-10-23T14:26:20;6.55;;;2.40;;
17844;SDS011;9047;53.486;10.218;2022-10-23T14:28:50;6.47;;;2.42;;
17844;SDS011;9047;53.486;10.218;2022-10-23T14:31:17;5.20;;;2.58;;
17844;SDS011;9047;53.486;10.218;2022-10-23T14:33:44;6.70;;;2.65;;
17844;SDS011;9047;53.486;10.218;2022-10-23T14:36:13;6.40;;;2.53;;
17844;SDS011;9047;53.486;10.218;2022-10-23T14:38:39;3.70;;;2.50;;
17844;SDS011;9047;53.486;10.218;2022-10-23T14:41:10;6.72;;;3.25;;
17844;SDS011;9047;53.486;10.218;2022-10-23T14:43:38;6.28;;;2.65;;
17844;SDS011;9047;53.486;10.218;2022-10-23T14:46:10;5.00;;;2.60;;
17844;SDS011;9047;53.486;10.218;2022-10-23T14:48:39;4.85;;;2.53;;
17844;SDS011;9047;53.486;10.218;2022-10-23T14:51:15;6.70;;;2.80;;
17844;SDS011;9047;53.486;10.218;2022-10-23T14:53:44;8.25;;;2.70;;
17844;SDS011;9047;53.486;10.218;2022-10-23T14:56:12;7.57;;;2.70;;
17844;SDS011;9047;53.486;10.218;2022-10-23T14:58:39;6.90;;;3.05;;
17844;SDS011;9047;53.486;10.218;2022-10-23T15:01:11;8.43;;;3.42;;
17844;SDS011;9047;53.486;10.218;2022-10-23T15:03:38;7.53;;;3.33;;
17844;SDS011;9047;53.486;10.218;2022-10-23T15:06:05;6.47;;;3.00;;
17844;SDS011;9047;53.486;10.218;2022-10-23T15:08:35;8.75;;;3.42;;